createdAt,value
2023-03-06T00:05:11.541Z,0
2023-03-06T00:11:09.948Z,0
2023-03-06T00:16:17.300Z,0
2023-03-06T00:22:09.508Z,0
2023-03-06T00:27:21.410Z,0
2023-03-06T00:33:13.592Z,0
2023-03-06T00:38:45.679Z,0
2023-03-06T00:44:05.878Z,0
2023-03-06T00:49:44.259Z,0
2023-03-06T00:55:30.338Z,0
2023-03-06T01:00:36.947Z,0
2023-03-06T01:06:35.092Z,0
2023-03-06T01:12:05.619Z,0
2023-03-06T01:17:32.071Z,0
2023-03-06T01:22:46.429Z,0
2023-03-06T01:28:42.365Z,0
2023-03-06T01:34:06.541Z,0
2023-03-06T01:39:33.193Z,0
2023-03-06T01:44:54.794Z,0
2023-03-06T01:50:53.672Z,0
2023-03-06T01:56:18.848Z,0
2023-03-06T02:01:43.364Z,0
2023-03-06T02:07:31.953Z,0
2023-03-06T02:12:49.739Z,0
2023-03-06T02:18:20.459Z,0
2023-03-06T02:24:03.999Z,0
2023-03-06T02:29:23.347Z,0
2023-03-06T02:34:55.881Z,0
2023-03-06T02:40:43.403Z,0
2023-03-06T02:46:19.566Z,0
2023-03-06T02:51:36.136Z,0
2023-03-06T02:57:25.130Z,0
2023-03-06T03:02:31.518Z,0
2023-03-06T03:08:27.267Z,0
2023-03-06T03:13:43.339Z,0
2023-03-06T03:19:17.214Z,0
2023-03-06T03:25:09.095Z,0
2023-03-06T03:30:21.822Z,0
2023-03-06T03:36:00.360Z,0
2023-03-06T03:41:16.869Z,0
2023-03-06T03:47:06.694Z,0
2023-03-06T03:52:33.641Z,0
2023-03-06T03:57:57.773Z,0
2023-03-06T04:03:41.270Z,0
2023-03-06T04:09:06.163Z,0
2023-03-06T04:14:58.033Z,0
2023-03-06T04:20:17.354Z,0
2023-03-06T04:25:45.025Z,0
2023-03-06T04:31:20.499Z,0
2023-03-06T04:36:47.368Z,0
2023-03-06T04:42:40.311Z,0
2023-03-06T04:48:03.150Z,0
2023-03-06T04:53:42.786Z,0
2023-03-06T04:58:53.843Z,0
2023-03-06T05:04:26.752Z,0
2023-03-06T05:09:58.343Z,0
2023-03-06T05:15:32.434Z,0
2023-03-06T05:21:04.941Z,0
2023-03-06T05:26:44.575Z,0
2023-03-06T05:32:19.971Z,0
2023-03-06T05:38:04.979Z,0
2023-03-06T05:43:39.748Z,0
2023-03-06T05:48:58.236Z,0
2023-03-06T05:54:37.839Z,0
2023-03-06T05:59:54.048Z,0
2023-03-06T06:05:46.845Z,0
2023-03-06T06:10:58.496Z,0
2023-03-06T06:16:34.719Z,0
2023-03-06T06:22:15.898Z,0
2023-03-06T06:27:50.376Z,0
2023-03-06T06:33:11.828Z,0
2023-03-06T06:39:04.371Z,0
2023-03-06T06:44:15.047Z,0
2023-03-06T06:49:47.004Z,0
2023-03-06T06:55:41.883Z,0
2023-03-06T07:00:56.339Z,0
2023-03-06T07:06:19.678Z,0
2023-03-06T07:12:11.818Z,0
2023-03-06T07:17:51.793Z,0
2023-03-06T07:22:57.037Z,0
2023-03-06T07:28:57.856Z,0
2023-03-06T07:34:18.379Z,0
2023-03-06T07:39:58.536Z,0
2023-03-06T07:45:27.503Z,0
2023-03-06T07:51:06.267Z,0
2023-03-06T07:56:14.758Z,0
2023-03-06T08:02:04.391Z,0
2023-03-06T08:07:43.007Z,0
2023-03-06T08:13:13.355Z,0
2023-03-06T08:18:50.040Z,0
2023-03-06T08:24:06.304Z,0
2023-03-06T08:29:53.135Z,0
2023-03-06T08:35:35.332Z,0
2023-03-06T08:40:45.263Z,0
2023-03-06T08:46:26.037Z,0
2023-03-06T08:52:00.946Z,0
2023-03-06T08:57:29.501Z,3.6
2023-03-06T09:03:02.621Z,5.9
2023-03-06T09:08:50.551Z,0
2023-03-06T09:14:26.490Z,3.6
2023-03-06T09:19:57.338Z,0
2023-03-06T09:25:26.194Z,2.4
2023-03-06T09:31:04.557Z,4.8
2023-03-06T09:36:23.280Z,5.9
2023-03-06T09:41:57.948Z,5.9
2023-03-06T09:47:33.473Z,2.4
2023-03-06T09:53:24.658Z,0
2023-03-06T09:58:57.748Z,4.8
2023-03-06T10:10:12.924Z,3.6
2023-03-06T10:15:50.966Z,2.4
2023-03-06T10:21:19.181Z,4.8
2023-03-06T10:26:53.588Z,3.6
2023-03-06T10:32:17.012Z,3.6
2023-03-06T10:37:46.757Z,5.9
2023-03-06T10:43:48.338Z,2.4
2023-03-06T10:49:13.105Z,7.2
2023-03-06T10:54:32.386Z,5.9
2023-03-06T11:00:29.270Z,3.6
2023-03-06T11:05:52.004Z,3.6
2023-03-06T11:11:36.660Z,8.4
2023-03-06T11:17:08.910Z,4.8
2023-03-06T11:22:50.338Z,5.9
2023-03-06T11:28:33.716Z,10.7
2023-03-06T11:33:46.173Z,8.4
2023-03-06T11:39:34.166Z,9.6
2023-03-06T11:45:05.610Z,9.6
2023-03-06T11:50:31.438Z,9.6
2023-03-06T11:56:34.635Z,7.2
2023-03-06T12:02:08.521Z,9.6
2023-03-06T12:07:32.199Z,8.4
2023-03-06T12:13:22.881Z,8.4
2023-03-06T12:18:34.445Z,9.6
2023-03-06T12:24:10.372Z,9.6
2023-03-06T12:29:50.244Z,8.4
2023-03-06T12:35:37.854Z,9.6
2023-03-06T12:41:23.392Z,8.4
2023-03-06T12:46:47.355Z,9.6
2023-03-06T12:52:12.436Z,9.6
2023-03-06T12:57:55.075Z,11.9
2023-03-06T13:03:35.808Z,15.6
2023-03-06T13:09:16.567Z,11.9
2023-03-06T13:14:58.054Z,10.7
2023-03-06T13:20:18.182Z,8.4
2023-03-06T13:26:09.233Z,9.6
2023-03-06T13:31:38.173Z,8.4
2023-03-06T13:37:12.591Z,7.2
2023-03-06T13:42:37.653Z,8.4
2023-03-06T13:48:42.936Z,8.4
2023-03-06T13:54:16.572Z,9.6
2023-03-06T13:59:39.259Z,7.2
2023-03-06T14:05:28.028Z,7.2
2023-03-06T14:11:02.609Z,9.6
2023-03-06T14:16:22.380Z,7.2
2023-03-06T14:22:13.410Z,13.2
2023-03-06T14:27:52.052Z,19.2
2023-03-06T14:33:36.073Z,8.4
2023-03-06T14:38:43.978Z,13.2
2023-03-06T14:44:27.269Z,21.5
2023-03-06T14:50:22.428Z,11.9
2023-03-06T14:55:37.272Z,10.7
2023-03-06T15:01:16.717Z,8.4
2023-03-06T15:06:58.158Z,15.6
2023-03-06T15:12:21.369Z,13.2
2023-03-06T15:18:04.324Z,7.2
2023-03-06T15:23:27.651Z,8.4
2023-03-06T15:35:00.308Z,11.9
2023-03-06T15:40:45.050Z,14.4
2023-03-06T15:46:15.663Z,15.6
2023-03-06T15:51:45.208Z,14.4
2023-03-06T15:57:26.373Z,16.8
2023-03-06T16:02:54.313Z,18
2023-03-06T16:08:31.539Z,15.6
2023-03-06T16:13:49.755Z,18
2023-03-06T16:19:50.070Z,20.4
2023-03-06T16:25:25.779Z,22.8
2023-03-06T16:30:44.861Z,18
2023-03-06T16:36:26.700Z,20.4
2023-03-06T16:41:57.328Z,20.4
2023-03-06T16:47:42.870Z,16.8
2023-03-06T16:53:08.798Z,16.8
2023-03-06T16:58:47.517Z,13.2
2023-03-06T17:04:23.020Z,19.2
2023-03-06T17:09:59.730Z,14.4
2023-03-06T17:15:17.602Z,13.2
2023-03-06T17:20:42.075Z,11.9
2023-03-06T17:26:25.463Z,13.2
2023-03-06T17:32:09.154Z,11.9
2023-03-06T17:37:47.781Z,13.2
2023-03-06T17:43:16.180Z,11.9
2023-03-06T17:48:42.119Z,9.6
2023-03-06T17:54:09.222Z,15.6
2023-03-06T18:00:06.884Z,14.4
2023-03-06T18:05:27.988Z,10.7
2023-03-06T18:10:59.348Z,11.9
2023-03-06T18:16:45.768Z,10.7
2023-03-06T18:22:20.562Z,8.4
2023-03-06T18:27:50.130Z,7.2
2023-03-06T18:33:26.732Z,4.8
2023-03-06T18:38:40.074Z,0
2023-03-06T18:44:18.326Z,0
2023-03-06T18:49:50.392Z,0
2023-03-06T18:55:23.919Z,0
2023-03-06T19:01:05.060Z,0
2023-03-06T19:06:44.865Z,0
2023-03-06T19:12:00.554Z,0
2023-03-06T19:17:59.107Z,0
2023-03-06T19:23:11.606Z,0
2023-03-06T19:28:51.955Z,0
2023-03-06T19:34:36.725Z,0
2023-03-06T19:39:53.386Z,4.8
2023-03-06T19:45:29.667Z,4.8
2023-03-06T19:50:57.894Z,4.8
2023-03-06T19:56:36.042Z,3.6
2023-03-06T20:02:04.052Z,0
2023-03-06T20:07:54.728Z,0
2023-03-06T20:13:15.772Z,0
2023-03-06T20:18:50.013Z,3.6
2023-03-06T20:24:37.133Z,2.4
2023-03-06T20:30:08.140Z,3.6
2023-03-06T20:35:21.972Z,0
2023-03-06T20:41:10.568Z,0
2023-03-06T20:46:52.277Z,0
2023-03-06T20:52:14.531Z,2.4
2023-03-06T20:57:42.960Z,0
2023-03-06T21:03:06.810Z,0
2023-03-06T21:09:01.672Z,4.8
2023-03-06T21:14:24.788Z,4.8
2023-03-06T21:20:02.618Z,4.8
2023-03-06T21:25:16.576Z,3.6
2023-03-06T21:31:07.978Z,2.4
2023-03-06T21:36:33.484Z,4.8
2023-03-06T21:42:19.804Z,4.8
2023-03-06T21:47:54.123Z,3.6
2023-03-06T21:53:20.296Z,3.6
2023-03-06T21:58:39.896Z,3.6
2023-03-06T22:04:30.037Z,0
2023-03-06T22:10:04.779Z,0
2023-03-06T22:15:45.202Z,3.6
2023-03-06T22:21:02.528Z,2.4
2023-03-06T22:26:35.746Z,0
2023-03-06T22:32:03.753Z,0
2023-03-06T22:37:38.908Z,0
2023-03-06T22:43:14.566Z,0
2023-03-06T22:48:47.122Z,0
2023-03-06T22:54:11.405Z,0
2023-03-06T22:59:47.561Z,0
2023-03-06T23:05:16.710Z,0
2023-03-06T23:11:03.758Z,0
2023-03-06T23:16:27.696Z,0
2023-03-06T23:21:57.718Z,0
2023-03-06T23:27:44.800Z,0
2023-03-06T23:33:15.886Z,0
2023-03-06T23:38:47.108Z,0
2023-03-06T23:44:13.388Z,0
2023-03-06T23:49:36.521Z,0
2023-03-06T23:55:13.923Z,0
